Aviation Digital Data Service (ADDS)

Output produced by TAFs form (0456 UTC 30 August 2016)
found at http://aviationweather.gov/adds/tafs/
 
KGJT 300301Z 3003/3024 15020G30KT P6SM VCSH BKN040 BKN090 WS020/04010KT 
     FM300500 14012KT P6SM SCT090 BKN140 
     FM301800 16004KT P6SM FEW140 
     FM302000 23004KT P6SM FEW070 SCT140